Chesapeake — WDD3041 — position and weather

sailwx.info

Track history (hours):
 
Tides and Currents Weather Stations Pressure Air Temp Water Temp Dewpoint Dewpoint Depression Visibility Wind Speed Wind Dir Waves Ship Positions

Chesapeake

Owner: Vane Line Bunkering, Baltimore, MD. More information available from US FCC via Universal Licensing System and Coast Guard Vessel Documentation Center.

Last reported at 2016-May-05 10:28 UTC. Time now 2016-May-06 03:39 UTC.
Position N 25°50' W 080°01'.

Length 34 m.

Type: Tug. MMSI: 367123040.

Date/timePositionNaut miles runAvg speedWind from/ knotsBaromVisibWave heightAir tempDewpointWater temp
2016-May-05 10:28N 25°50' W 080°01'6 6.3
2016-May-05 09:31N 25°56' W 080°01'5 5.7
2016-May-05 08:33N 26°02' W 080°00'6 5.7
2016-May-05 07:33N 26°07' W 079°60'6 5.6
2016-May-05 06:33N 26°13' W 079°60'6 5.7
2016-May-05 05:33N 26°19' W 079°59'6 5.6
2016-May-05 04:33N 26°24' W 079°59'5 5.0
2016-May-05 03:33N 26°29' W 079°58'5 4.7
2016-May-05 02:33N 26°34' W 079°58'5 4.6
2016-May-05 01:33N 26°38' W 079°58'5 4.5
2016-May-05 00:33N 26°43' W 079°59'4 3.8
2016-May-04 23:27N 26°46' W 080°02'1 0.1
2016-May-04 08:27N 26°46' W 080°03'4 0.2
2016-May-03 12:14N 26°48' W 079°60'3 0.3
2016-May-03 01:29N 26°51' W 079°58'1 1.2
2016-May-03 00:33N 26°52' W 079°59'2 2.3
2016-May-02 23:34N 26°55' W 079°59'3 2.8
2016-May-02 22:33N 26°57' W 079°59'1 1.3
2016-May-02 21:33N 26°58' W 079°58'0 0.1
2016-May-02 20:33N 26°58' W 079°58'0 0.2
2016-May-02 19:33N 26°59' W 079°58'0 0.2
2016-May-02 18:33N 26°58' W 079°58'0 0.1
2016-May-02 17:33N 26°58' W 079°58'0 0.0
2016-May-02 16:34N 26°58' W 079°58'0 0.2
2016-May-02 15:33N 26°58' W 079°58'0 0.2
2016-May-02 14:34N 26°58' W 079°58'0 0.2
2016-May-02 13:33N 26°58' W 079°58'1 0.8
2016-May-02 12:33N 26°59' W 079°58'0 0.4
2016-May-02 11:33N 26°59' W 079°58'0 0.4
2016-May-02 10:33N 26°60' W 079°58'0 0.3
2016-May-02 09:33N 26°60' W 079°58'1 0.6
2016-May-02 08:31N 27°00' W 079°59'1 0.6
2016-May-02 07:33N 26°60' W 079°59'1 0.8
2016-May-02 06:33N 26°59' W 079°59'1 0.9
2016-May-02 05:33N 26°58' W 079°58'1 0.9
2016-May-02 04:33N 26°57' W 079°58'1 0.8
2016-May-02 03:33N 26°56' W 079°58'2 2.0
2016-May-02 02:33N 26°54' W 079°58'20 6.7
2016-May-01 23:33N 26°34' W 079°57'7 6.6
2016-May-01 22:31N 26°27' W 079°58'7 7.1
2016-May-01 21:33N 26°21' W 079°59'8 7.5
2016-May-01 20:33N 26°13' W 080°01'7 6.9
2016-May-01 19:33N 26°07' W 080°03'2 1.6
2016-May-01 18:33N 26°06' W 080°05'3 3.1
2016-May-01 17:33N 26°08' W 080°02'3 3.2
2016-May-01 16:33N 26°05' W 080°03'8 8.5
2016-May-01 15:33N 25°57' W 080°01'10 9.7
2016-May-01 14:33N 25°47' W 080°00'  
2016-Apr-27 12:33N 29°52' W 089°56'8 7.7
2016-Apr-27 11:34N 29°57' W 090°02'7 6.9
2016-Apr-27 10:34N 29°57' W 090°10'  
Track history (hours):
 
Tides and Currents Weather Stations Pressure Air Temp Water Temp Dewpoint Dewpoint Depression Visibility Wind Speed Wind Dir Waves Ship Positions

Chesapeake

Owner: Vane Line Bunkering, Baltimore, MD. More information available from US FCC via Universal Licensing System and Coast Guard Vessel Documentation Center.

Last reported at 2016-May-05 10:28 UTC. Time now 2016-May-06 03:39 UTC.
Position N 25°50' W 080°01'.

Length 34 m.

Type: Tug. MMSI: 367123040.

Date/timePositionNaut miles runAvg speedWind from/ knotsBaromVisibWave heightAir tempDewpointWater temp
2016-May-05 10:28N 25°50' W 080°01'6 6.3
2016-May-05 09:31N 25°56' W 080°01'5 5.7
2016-May-05 08:33N 26°02' W 080°00'6 5.7
2016-May-05 07:33N 26°07' W 079°60'6 5.6
2016-May-05 06:33N 26°13' W 079°60'6 5.7
2016-May-05 05:33N 26°19' W 079°59'6 5.6
2016-May-05 04:33N 26°24' W 079°59'5 5.0
2016-May-05 03:33N 26°29' W 079°58'5 4.7
2016-May-05 02:33N 26°34' W 079°58'5 4.6
2016-May-05 01:33N 26°38' W 079°58'5 4.5
2016-May-05 00:33N 26°43' W 079°59'4 3.8
2016-May-04 23:27N 26°46' W 080°02'1 0.1
2016-May-04 08:27N 26°46' W 080°03'4 0.2
2016-May-03 12:14N 26°48' W 079°60'3 0.3
2016-May-03 01:29N 26°51' W 079°58'1 1.2
2016-May-03 00:33N 26°52' W 079°59'2 2.3
2016-May-02 23:34N 26°55' W 079°59'3 2.8
2016-May-02 22:33N 26°57' W 079°59'1 1.3
2016-May-02 21:33N 26°58' W 079°58'0 0.1
2016-May-02 20:33N 26°58' W 079°58'0 0.2
2016-May-02 19:33N 26°59' W 079°58'0 0.2
2016-May-02 18:33N 26°58' W 079°58'0 0.1
2016-May-02 17:33N 26°58' W 079°58'0 0.0
2016-May-02 16:34N 26°58' W 079°58'0 0.2
2016-May-02 15:33N 26°58' W 079°58'0 0.2
2016-May-02 14:34N 26°58' W 079°58'0 0.2
2016-May-02 13:33N 26°58' W 079°58'1 0.8
2016-May-02 12:33N 26°59' W 079°58'0 0.4
2016-May-02 11:33N 26°59' W 079°58'0 0.4
2016-May-02 10:33N 26°60' W 079°58'0 0.3
2016-May-02 09:33N 26°60' W 079°58'1 0.6
2016-May-02 08:31N 27°00' W 079°59'1 0.6
2016-May-02 07:33N 26°60' W 079°59'1 0.8
2016-May-02 06:33N 26°59' W 079°59'1 0.9
2016-May-02 05:33N 26°58' W 079°58'1 0.9
2016-May-02 04:33N 26°57' W 079°58'1 0.8
2016-May-02 03:33N 26°56' W 079°58'2 2.0
2016-May-02 02:33N 26°54' W 079°58'20 6.7
2016-May-01 23:33N 26°34' W 079°57'7 6.6
2016-May-01 22:31N 26°27' W 079°58'7 7.1
2016-May-01 21:33N 26°21' W 079°59'8 7.5
2016-May-01 20:33N 26°13' W 080°01'7 6.9
2016-May-01 19:33N 26°07' W 080°03'2 1.6
2016-May-01 18:33N 26°06' W 080°05'3 3.1
2016-May-01 17:33N 26°08' W 080°02'3 3.2
2016-May-01 16:33N 26°05' W 080°03'8 8.5
2016-May-01 15:33N 25°57' W 080°01'10 9.7
2016-May-01 14:33N 25°47' W 080°00'  
2016-Apr-27 12:33N 29°52' W 089°56'8 7.7
2016-Apr-27 11:34N 29°57' W 090°02'7 6.9
2016-Apr-27 10:34N 29°57' W 090°10'  

Dump ship's entire track history